Time;durP1;ratioP1;P1;durP2;ratioP2;P2;SDS_P1;SDS_P2;PMS_P1;PMS_P2;Temp;Humidity;BMP_temperature;BMP_pressure;BME280_temperature;BME280_humidity;BME280_pressure;Samples;Min_cycle;Max_cycle;Signal;HPM_P1;HPM_P2
2023/05/07 00:02:26;;;;;;;;;32.50;32.00;;;;;16.25;78.45;101622.72;4932146;28;9824;-68
2023/05/07 00:04:52;;;;;;;;;36.00;30.00;;;;;16.23;79.14;101615.81;4958500;28;9802;-69
2023/05/07 00:07:19;;;;;;;;;26.25;22.25;;;;;16.24;79.22;101618.31;4936682;28;9759;-69
2023/05/07 00:09:46;;;;;;;;;33.75;33.00;;;;;16.24;79.45;101612.88;4952565;28;9710;-69
2023/05/07 00:12:12;;;;;;;;;33.25;29.50;;;;;16.23;79.25;101611.22;4955227;28;9945;-68
2023/05/07 00:14:38;;;;;;;;;39.00;34.75;;;;;16.21;79.01;101618.75;4934701;28;9874;-69
2023/05/07 00:17:05;;;;;;;;;30.00;28.50;;;;;16.20;78.92;101621.66;4939114;28;10276;-69
2023/05/07 00:19:31;;;;;;;;;42.25;33.50;;;;;16.18;79.36;101616.44;4931901;28;9995;-69
2023/05/07 00:21:58;;;;;;;;;42.25;40.00;;;;;16.18;79.07;101618.34;4954497;28;10059;-69
2023/05/07 00:24:24;;;;;;;;;31.00;26.50;;;;;16.18;79.60;101619.16;4950675;28;10256;-67
2023/05/07 00:26:52;;;;;;;;;31.50;30.50;;;;;16.17;79.08;101616.69;4949974;28;9954;-66
2023/05/07 00:29:18;;;;;;;;;12.50;6.25;;;;;16.15;79.16;101614.16;4950427;28;10113;-68
2023/05/07 00:31:45;;;;;;;;;34.50;28.00;;;;;16.14;79.41;101615.22;4941141;28;9914;-69
2023/05/07 00:34:12;;;;;;;;;31.25;29.25;;;;;16.13;78.88;101613.53;4955912;28;10047;-69
2023/05/07 00:36:38;;;;;;;;;30.00;25.50;;;;;16.09;78.75;101612.31;4952099;28;9984;-68
2023/05/07 00:39:04;;;;;;;;;24.00;21.25;;;;;16.05;78.96;101614.59;4935478;28;9703;-69
2023/05/07 00:41:31;;;;;;;;;26.25;26.25;;;;;16.02;79.22;101609.59;4955756;28;9995;-68
2023/05/07 00:43:58;;;;;;;;;26.50;25.25;;;;;15.99;79.15;101607.28;4954545;28;10690;-65
2023/05/07 00:46:24;;;;;;;;;32.00;30.50;;;;;16.01;79.21;101612.53;4950079;29;9614;-69
2023/05/07 00:48:51;;;;;;;;;39.00;33.50;;;;;15.99;79.41;101610.00;4934444;29;9798;-68
2023/05/07 00:51:18;;;;;;;;;32.25;27.00;;;;;15.98;79.15;101607.50;4947826;28;9937;-69
2023/05/07 00:53:45;;;;;;;;;38.75;32.00;;;;;15.97;78.89;101608.56;4942082;28;10041;-70
2023/05/07 00:56:11;;;;;;;;;33.00;29.50;;;;;15.96;79.09;101601.44;4946233;28;10014;-68
2023/05/07 00:58:38;;;;;;;;;29.50;28.25;;;;;15.95;79.27;101608.75;4926628;29;10061;-69
2023/05/07 01:01:06;;;;;;;;;36.00;31.50;;;;;15.96;78.96;101604.16;4947170;29;9961;-68
2023/05/07 01:03:33;;;;;;;;;31.75;30.75;;;;;15.94;78.97;101607.09;4949139;28;9852;-68
2023/05/07 01:06:02;;;;;;;;;32.75;30.00;;;;;15.95;79.18;101610.63;4956923;28;10116;-68
2023/05/07 01:08:30;;;;;;;;;37.50;33.75;;;;;15.96;79.26;101601.44;4958209;28;9936;-69
2023/05/07 01:10:57;;;;;;;;;29.75;28.00;;;;;15.95;79.08;101606.03;4955062;28;10848;-69
2023/05/07 01:13:24;;;;;;;;;27.75;26.25;;;;;15.94;79.37;101607.09;4935408;28;9981;-69
2023/05/07 01:15:51;;;;;;;;;34.50;27.50;;;;;15.95;79.27;101616.91;4959996;28;9856;-69
2023/05/07 01:18:18;;;;;;;;;29.50;28.00;;;;;15.95;79.19;101605.19;4961123;28;9784;-69
2023/05/07 01:20:45;;;;;;;;;31.25;28.25;;;;;15.93;79.18;101610.03;4961791;28;9785;-70
2023/05/07 01:23:12;;;;;;;;;35.25;31.00;;;;;15.94;79.35;101608.97;4953609;28;10944;-70
2023/05/07 01:25:39;;;;;;;;;27.00;26.75;;;;;15.91;79.16;101606.66;4934085;28;10114;-70
2023/05/07 01:28:06;;;;;;;;;36.25;34.50;;;;;15.87;79.37;101602.72;4961236;28;10003;-68
2023/05/07 01:30:36;;;;;;;;;27.50;27.00;;;;;15.87;79.13;101610.84;4941565;28;10174;-69
2023/05/07 01:33:13;;;;;;;;;32.75;26.50;;;;;15.86;79.20;101610.03;4953487;28;9764;-69
2023/05/07 01:35:46;;;;;;;;;30.75;28.00;;;;;15.85;79.46;101604.81;4945424;28;10060;-69
2023/05/07 01:38:13;;;;;;;;;32.75;30.00;;;;;15.85;79.38;101605.66;4953220;28;9948;-69
2023/05/07 01:40:40;;;;;;;;;29.25;26.00;;;;;15.84;79.45;101601.28;4950694;28;9930;-69
2023/05/07 01:43:07;;;;;;;;;29.25;23.25;;;;;15.85;79.65;101605.66;4937612;28;9894;-70
2023/05/07 01:45:36;;;;;;;;;33.50;27.00;;;;;15.81;78.99;101598.97;4956638;28;10042;-70
2023/05/07 01:48:03;;;;;;;;;23.25;20.75;;;;;15.75;79.86;101597.91;4963673;28;9717;-70
2023/05/07 01:50:31;;;;;;;;;24.75;22.75;;;;;15.76;80.11;101596.06;4937772;28;9628;-69
2023/05/07 01:52:58;;;;;;;;;26.00;23.25;;;;;15.75;79.72;101597.91;4954635;28;9823;-69
2023/05/07 01:55:24;;;;;;;;;25.50;25.50;;;;;15.74;79.78;101592.69;4952006;28;9741;-70
2023/05/07 01:57:51;;;;;;;;;23.50;20.25;;;;;15.74;79.82;101596.25;4954758;28;9791;-68
2023/05/07 02:00:18;;;;;;;;;28.25;25.75;;;;;15.74;79.94;101596.25;4947017;28;9616;-69
2023/05/07 02:02:45;;;;;;;;;20.50;16.50;;;;;15.75;80.17;101603.34;4955506;28;9783;-67
2023/05/07 02:05:27;;;;;;;;;26.50;22.50;;;;;15.75;79.74;101594.38;4948367;28;9633;-70
2023/05/07 02:08:16;;;;;;;;;19.25;19.00;;;;;15.74;79.86;101595.41;4954003;28;9728;-70
2023/05/07 02:10:42;;;;;;;;;23.50;20.75;;;;;15.75;79.71;101597.06;4935856;28;9458;-70
2023/05/07 02:13:09;;;;;;;;;22.75;19.00;;;;;15.73;79.71;101591.88;4939997;28;9762;-70
2023/05/07 02:15:35;;;;;;;;;22.25;21.00;;;;;15.74;79.92;101595.41;4953133;28;9747;-68
2023/05/07 02:18:06;;;;;;;;;18.50;18.00;;;;;15.76;79.93;101601.50;4935269;28;9830;-69
2023/05/07 02:20:32;;;;;;;;;18.50;18.50;;;;;15.74;79.57;101592.69;4947583;28;9599;-69
2023/05/07 02:22:59;;;;;;;;;27.00;23.00;;;;;15.71;79.59;101591.22;4956909;28;9615;-70
2023/05/07 02:25:29;;;;;;;;;24.50;22.25;;;;;15.65;79.83;101592.09;4953970;28;9890;-70
2023/05/07 02:27:55;;;;;;;;;21.25;18.50;;;;;15.58;79.84;101586.63;4938946;28;9694;-69
2023/05/07 02:30:30;;;;;;;;;24.75;24.25;;;;;15.57;80.10;101584.94;4950123;28;9638;-68
2023/05/07 02:32:58;;;;;;;;;26.25;26.25;;;;;15.55;80.30;101589.75;4935219;28;9875;-70
2023/05/07 02:35:25;;;;;;;;;26.50;25.75;;;;;15.53;80.32;101583.69;4934644;28;9757;-69
2023/05/07 02:37:52;;;;;;;;;25.00;20.25;;;;;15.55;80.17;101575.34;4950895;28;9813;-69
2023/05/07 02:40:19;;;;;;;;;18.25;18.25;;;;;15.54;80.31;101589.97;4942918;28;9686;-69
2023/05/07 02:42:46;;;;;;;;;16.50;16.25;;;;;15.56;80.35;101590.59;4964980;28;9533;-69
2023/05/07 02:45:14;;;;;;;;;16.25;14.00;;;;;15.53;80.16;101586.41;4950647;28;9503;-69
2023/05/07 02:47:41;;;;;;;;;15.00;15.00;;;;;15.54;80.12;101592.69;4953115;28;9444;-70
2023/05/07 02:50:08;;;;;;;;;17.50;15.00;;;;;15.55;80.34;101594.34;4955449;28;9547;-69
2023/05/07 02:52:35;;;;;;;;;16.75;15.25;;;;;15.59;80.19;101598.31;4936246;28;9563;-69
2023/05/07 02:55:02;;;;;;;;;12.00;12.00;;;;;15.56;80.12;101594.16;4951545;28;9596;-69
2023/05/07 02:57:28;;;;;;;;;16.25;14.50;;;;;15.58;79.85;101599.34;4935385;28;10306;-69
2023/05/07 02:59:58;;;;;;;;;14.67;14.00;;;;;15.59;80.14;101601.00;4956423;28;9538;-70
2023/05/07 03:02:29;;;;;;;;;15.25;15.00;;;;;15.59;79.94;101601.00;4965506;28;9383;-69
2023/05/07 03:04:56;;;;;;;;;16.00;14.67;;;;;15.60;79.62;101600.00;4933989;28;9560;-69
2023/05/07 03:07:22;;;;;;;;;10.67;10.67;;;;;15.62;79.55;101597.88;4933306;28;9464;-70
2023/05/07 03:09:49;;;;;;;;;15.75;14.00;;;;;15.62;79.79;101603.31;4942828;28;10220;-69
2023/05/07 03:12:15;;;;;;;;;11.00;11.00;;;;;15.66;79.73;101603.78;4946426;28;9487;-69
2023/05/07 03:14:42;;;;;;;;;15.00;14.00;;;;;15.66;79.49;101598.34;4943349;28;9369;-69
2023/05/07 03:17:08;;;;;;;;;12.75;10.25;;;;;15.66;79.33;101601.88;4946955;28;9515;-69
2023/05/07 03:19:35;;;;;;;;;12.25;12.25;;;;;15.65;79.51;101597.50;4951814;28;9561;-68
2023/05/07 03:22:01;;;;;;;;;11.75;11.00;;;;;15.65;79.87;101602.13;4935780;28;9644;-69
2023/05/07 03:24:28;;;;;;;;;13.50;11.75;;;;;15.64;79.37;101592.25;4946447;28;9561;-69
2023/05/07 03:26:54;;;;;;;;;11.75;11.75;;;;;15.63;79.49;101596.84;4952587;28;9480;-69
2023/05/07 03:29:21;;;;;;;;;12.00;12.00;;;;;15.63;79.35;101594.13;4950803;28;9315;-69
2023/05/07 03:31:48;;;;;;;;;10.50;10.50;;;;;15.63;79.38;101593.28;4982663;23;9465;-65
2023/05/07 03:34:16;;;;;;;;;12.33;11.00;;;;;15.64;79.40;101594.97;4981654;28;9422;-66
2023/05/07 03:36:43;;;;;;;;;10.00;10.00;;;;;15.62;79.62;101591.63;4990151;28;9448;-66
2023/05/07 03:39:11;;;;;;;;;9.00;7.00;;;;;15.60;79.20;101594.56;4991311;28;9443;-66
2023/05/07 03:41:40;;;;;;;;;10.00;10.00;;;;;15.58;79.17;101591.22;4999124;28;9255;-66
2023/05/07 03:44:06;;;;;;;;;11.00;10.00;;;;;15.57;79.47;101589.56;4969175;28;9350;-66
2023/05/07 03:46:34;;;;;;;;;11.00;11.00;;;;;15.56;79.59;101594.16;4978272;28;9302;-66
2023/05/07 03:49:01;;;;;;;;;14.00;13.75;;;;;15.54;79.40;101585.38;4980136;28;9307;-66
2023/05/07 03:51:30;;;;;;;;;11.67;11.67;;;;;15.54;79.58;101588.06;4990854;28;9409;-66
2023/05/07 03:53:57;;;;;;;;;11.33;10.67;;;;;15.55;79.63;101586.19;4994943;28;9419;-66
2023/05/07 03:56:26;;;;;;;;;8.25;6.50;;;;;15.54;79.64;101585.38;4990390;28;9371;-65
2023/05/07 03:58:54;;;;;;;;;14.75;14.00;;;;;15.53;79.63;101591.84;4976291;28;9376;-66
2023/05/07 04:01:20;;;;;;;;;10.00;10.00;;;;;15.54;79.46;101589.97;4972611;28;9540;-66
2023/05/07 04:03:47;;;;;;;;;11.00;10.00;;;;;15.53;79.58;101594.56;4950731;28;9400;-65
2023/05/07 04:06:15;;;;;;;;;11.67;11.00;;;;;15.54;79.48;101600.81;4982855;28;9389;-66
2023/05/07 04:08:44;;;;;;;;;10.33;9.00;;;;;15.52;79.72;101587.47;4991037;28;9445;-67
2023/05/07 04:11:11;;;;;;;;;10.50;9.00;;;;;15.53;79.64;101591.84;4979371;28;9351;-67
2023/05/07 04:13:38;;;;;;;;;10.33;10.00;;;;;15.52;79.48;101605.63;4959051;28;9488;-67
2023/05/07 04:16:07;;;;;;;;;12.67;12.00;;;;;15.51;79.50;101606.66;4990388;28;9596;-66
2023/05/07 04:18:35;;;;;;;;;9.67;8.67;;;;;15.51;79.55;101598.50;4980966;28;9395;-66
2023/05/07 04:21:03;;;;;;;;;10.00;10.00;;;;;15.50;79.28;101596.84;4968405;28;9570;-66
2023/05/07 04:23:30;;;;;;;;;10.33;10.33;;;;;15.49;79.36;101597.91;4968641;28;9249;-66
2023/05/07 04:26:00;;;;;;;;;12.25;12.25;;;;;15.49;79.20;101601.44;4950887;28;9326;-66
2023/05/07 04:28:39;;;;;;;;;12.00;10.33;;;;;15.50;79.40;101607.69;4987867;28;9449;-67
2023/05/07 04:31:06;;;;;;;;;14.75;14.25;;;;;15.49;79.47;101606.88;4986222;28;9634;-66
2023/05/07 04:33:35;;;;;;;;;14.33;12.00;;;;;15.49;79.40;101617.72;4939636;28;9480;-66
2023/05/07 04:36:03;;;;;;;;;16.00;14.50;;;;;15.49;79.46;101614.19;4979277;28;9460;-66
2023/05/07 04:38:34;;;;;;;;;12.75;12.00;;;;;15.49;79.46;101617.72;4953686;28;9532;-66
2023/05/07 04:41:06;;;;;;;;;13.00;11.33;;;;;15.47;79.22;101613.53;4984233;28;9459;-66
2023/05/07 04:43:37;;;;;;;;;12.50;12.50;;;;;15.44;79.67;101616.69;4969724;28;9332;-67
2023/05/07 04:46:03;;;;;;;;;14.75;14.75;;;;;15.42;79.84;101610.63;4991814;28;9425;-66
2023/05/07 04:48:30;;;;;;;;;9.67;9.67;;;;;15.42;80.08;101614.16;4965928;28;9626;-66
2023/05/07 04:50:58;;;;;;;;;9.33;8.00;;;;;15.42;80.00;101613.34;4980314;28;9442;-66
2023/05/07 04:53:24;;;;;;;;;16.25;13.25;;;;;15.42;80.27;101614.16;4965562;28;9403;-66
2023/05/07 04:55:59;;;;;;;;;15.33;13.00;;;;;15.42;80.02;101613.34;4981844;28;9469;-66
2023/05/07 04:58:31;;;;;;;;;12.00;12.00;;;;;15.43;80.28;101620.41;4964007;28;9408;-67
2023/05/07 05:01:00;;;;;;;;;18.75;16.75;;;;;15.43;79.96;101620.41;4955524;28;9467;-66
2023/05/07 05:03:27;;;;;;;;;13.75;13.75;;;;;15.43;80.24;101609.56;4974181;28;9820;-66
2023/05/07 05:05:54;;;;;;;;;14.25;14.25;;;;;15.41;80.04;101614.38;4978735;28;9676;-67
2023/05/07 05:08:22;;;;;;;;;22.25;21.00;;;;;15.37;80.59;101619.38;4974484;28;10409;-67
2023/05/07 05:10:49;;;;;;;;;18.00;15.00;;;;;15.39;80.55;101624.59;4979695;28;9810;-67
2023/05/07 05:13:16;;;;;;;;;20.25;19.50;;;;;15.40;80.54;101610.00;4990181;28;9554;-67
2023/05/07 05:15:43;;;;;;;;;18.50;15.00;;;;;15.39;80.56;101614.56;4978463;28;9653;-66
2023/05/07 05:18:10;;;;;;;;;19.25;17.00;;;;;15.33;80.42;101615.41;4994098;28;9712;-66
2023/05/07 05:20:38;;;;;;;;;22.75;20.00;;;;;15.27;80.70;101614.38;4973622;28;10478;-66
2023/05/07 05:23:05;;;;;;;;;20.75;16.75;;;;;15.29;81.38;101627.72;4969282;28;9836;-66
2023/05/07 05:25:32;;;;;;;;;23.50;20.00;;;;;15.30;81.24;101618.53;4985113;28;9663;-66
2023/05/07 05:28:01;;;;;;;;;17.75;16.75;;;;;15.32;81.24;101619.19;4985331;28;9537;-66
2023/05/07 05:30:28;;;;;;;;;19.50;17.75;;;;;15.31;80.97;101626.47;4988860;28;9538;-66
2023/05/07 05:32:54;;;;;;;;;23.75;20.00;;;;;15.30;80.96;101632.94;4949857;28;9472;-66
2023/05/07 05:35:21;;;;;;;;;29.00;26.25;;;;;15.32;81.15;101630.03;4955365;28;9916;-66
2023/05/07 05:37:48;;;;;;;;;23.00;21.75;;;;;15.31;81.18;101641.91;4981812;28;9738;-66
2023/05/07 05:40:16;;;;;;;;;19.00;19.00;;;;;15.32;80.95;101636.28;4958174;28;9712;-66
2023/05/07 05:42:42;;;;;;;;;23.25;21.25;;;;;15.31;80.96;101644.59;4977909;28;9659;-66
2023/05/07 05:45:09;;;;;;;;;23.25;21.25;;;;;15.29;81.01;101642.13;4986111;28;9728;-67
2023/05/07 05:47:37;;;;;;;;;22.25;20.75;;;;;15.31;81.38;101653.59;4965961;28;9779;-66
2023/05/07 05:50:06;;;;;;;;;26.25;24.25;;;;;15.30;81.21;101649.19;4969092;28;9854;-66
2023/05/07 05:52:32;;;;;;;;;20.00;17.75;;;;;15.36;81.38;101653.00;4972356;28;9791;-66
2023/05/07 05:54:59;;;;;;;;;16.50;16.50;;;;;15.37;80.52;101659.25;4987214;28;9547;-66
2023/05/07 05:57:26;;;;;;;;;29.75;26.75;;;;;15.32;81.04;101649.84;4969467;28;9734;-67
2023/05/07 05:59:54;;;;;;;;;27.00;24.00;;;;;15.29;80.81;101652.13;4968107;28;9870;-66
2023/05/07 06:02:21;;;;;;;;;17.75;17.50;;;;;15.34;80.89;101652.34;4983045;28;9698;-67
2023/05/07 06:04:48;;;;;;;;;28.25;27.00;;;;;15.29;80.49;101655.69;4980042;28;10605;-66
2023/05/07 06:07:18;;;;;;;;;18.50;18.50;;;;;15.30;81.19;101661.94;4981823;28;9861;-66
2023/05/07 06:09:44;;;;;;;;;20.25;20.00;;;;;15.30;80.80;101654.63;4978763;28;9471;-67
2023/05/07 06:12:12;;;;;;;;;19.25;18.50;;;;;15.32;80.91;101663.41;4969928;28;9611;-66
2023/05/07 06:14:38;;;;;;;;;21.75;20.25;;;;;15.38;81.25;101666.34;4964425;28;9743;-66
2023/05/07 06:17:05;;;;;;;;;22.50;19.75;;;;;15.43;80.64;101671.97;4968053;28;9627;-66
2023/05/07 06:19:31;;;;;;;;;21.25;19.00;;;;;15.47;80.74;101675.94;4988615;28;9725;-67
2023/05/07 06:22:01;;;;;;;;;17.00;16.00;;;;;15.50;80.65;101680.97;4971598;28;9575;-67
2023/05/07 06:24:28;;;;;;;;;17.00;17.00;;;;;15.49;80.63;101682.00;4983530;28;9473;-66
2023/05/07 06:26:55;;;;;;;;;17.75;17.50;;;;;15.52;80.64;101687.88;4984449;28;9547;-66
2023/05/07 06:29:22;;;;;;;;;17.25;15.25;;;;;15.56;80.51;101686.41;4967419;28;9460;-66
2023/05/07 06:31:49;;;;;;;;;17.25;17.25;;;;;15.58;80.51;101686.19;4986661;28;9469;-67
2023/05/07 06:34:15;;;;;;;;;18.50;17.00;;;;;15.60;80.71;101686.84;4983685;28;9701;-66
2023/05/07 06:36:42;;;;;;;;;20.25;19.00;;;;;15.65;80.42;101678.94;4985740;28;9653;-66
2023/05/07 06:39:22;;;;;;;;;18.50;17.50;;;;;15.67;80.25;101689.56;4981918;28;9787;-66
2023/05/07 06:41:51;;;;;;;;;21.75;20.50;;;;;15.67;80.57;101684.97;4973432;28;9702;-66
2023/05/07 06:44:25;;;;;;;;;25.00;24.00;;;;;15.64;80.23;101688.09;4981822;28;9718;-66
2023/05/07 06:47:03;;;;;;;;;23.00;20.50;;;;;15.69;80.65;101690.22;4986092;28;9920;-67
2023/05/07 06:49:29;;;;;;;;;17.50;17.50;;;;;15.74;80.66;101683.13;4984164;28;9840;-67
2023/05/07 06:51:57;;;;;;;;;29.00;28.50;;;;;15.77;80.42;101688.13;4981877;28;9575;-67
2023/05/07 06:54:23;;;;;;;;;25.50;25.50;;;;;15.76;80.61;101683.75;4980204;28;9774;-67
2023/05/07 06:56:51;;;;;;;;;25.50;24.00;;;;;15.74;80.16;101682.28;4979783;28;9999;-67
2023/05/07 06:59:19;;;;;;;;;21.75;21.75;;;;;15.75;80.64;101684.78;4986817;28;9971;-67
2023/05/07 07:01:45;;;;;;;;;27.75;25.50;;;;;15.76;80.54;101689.19;4970626;28;9834;-67
2023/05/07 07:04:12;;;;;;;;;17.25;16.75;;;;;15.82;80.69;101687.50;4973955;28;10535;-67
2023/05/07 07:06:41;;;;;;;;;23.75;23.50;;;;;15.82;80.65;101699.19;4983972;28;9817;-67
2023/05/07 07:09:10;;;;;;;;;23.00;22.00;;;;;15.82;80.81;101693.78;4981657;28;9811;-67
2023/05/07 07:11:37;;;;;;;;;20.50;20.50;;;;;15.85;80.52;101688.97;4985282;28;9816;-67
2023/05/07 07:14:05;;;;;;;;;21.50;21.50;;;;;15.83;80.71;101689.16;4971501;28;10516;-67
2023/05/07 07:16:35;;;;;;;;;26.75;26.75;;;;;15.80;81.10;101692.31;4977386;28;9691;-67
2023/05/07 07:19:02;;;;;;;;;29.00;26.25;;;;;15.73;81.46;101695.03;4967478;28;9690;-67
2023/05/07 07:21:28;;;;;;;;;25.25;25.25;;;;;15.72;81.58;101684.38;4979898;28;9704;-67
2023/05/07 07:23:55;;;;;;;;;27.00;23.00;;;;;15.69;81.96;101693.75;4976354;28;9886;-67
2023/05/07 07:26:22;;;;;;;;;27.75;23.00;;;;;15.73;82.15;101686.88;4964772;28;9830;-67
2023/05/07 07:28:48;;;;;;;;;16.00;15.25;;;;;15.79;82.33;101691.47;4965506;28;9638;-67
2023/05/07 07:31:18;;;;;;;;;23.75;19.75;;;;;15.79;81.70;101694.19;4972615;28;9622;-67
2023/05/07 07:33:46;;;;;;;;;28.00;25.75;;;;;15.80;82.14;101687.72;4977448;28;9922;-67
2023/05/07 07:36:12;;;;;;;;;25.25;23.50;;;;;15.86;82.37;101685.22;4968102;28;9604;-67
2023/05/07 07:38:40;;;;;;;;;20.25;19.50;;;;;15.95;82.21;101690.22;4957942;28;9812;-67
2023/05/07 07:41:08;;;;;;;;;30.50;26.25;;;;;16.07;82.76;101688.53;4981880;28;9556;-67
2023/05/07 07:43:35;;;;;;;;;24.00;24.00;;;;;16.23;82.55;101689.16;4969641;28;10598;-66
2023/05/07 07:46:03;;;;;;;;;18.33;17.67;;;;;16.38;82.24;101697.09;4987211;28;9650;-67
2023/05/07 07:48:30;;;;;;;;;19.00;19.00;;;;;16.51;82.45;101697.06;4981943;28;9333;-67
2023/05/07 07:50:57;;;;;;;;;24.75;24.75;;;;;16.67;82.11;101696.59;4955148;28;9585;-67
2023/05/07 07:53:24;;;;;;;;;20.67;19.00;;;;;16.74;81.55;101689.28;4980769;28;9693;-67
2023/05/07 07:55:50;;;;;;;;;24.67;22.67;;;;;16.80;81.32;101688.41;4984208;28;9208;-67
2023/05/07 07:58:22;;;;;;;;;22.75;22.75;;;;;16.74;80.03;101681.13;4969017;28;9425;-67
2023/05/07 08:00:49;;;;;;;;;28.00;27.00;;;;;16.67;80.11;101693.88;4957603;28;9510;-67
2023/05/07 08:03:16;;;;;;;;;27.75;25.50;;;;;16.61;79.63;101702.03;4981053;28;9569;-67
2023/05/07 08:05:47;;;;;;;;;33.25;30.50;;;;;16.57;80.02;101704.38;4970750;28;9403;-67
2023/05/07 08:08:14;;;;;;;;;24.00;22.33;;;;;16.61;79.78;101705.63;4980462;28;10296;-67
2023/05/07 08:10:42;;;;;;;;;21.67;21.33;;;;;16.64;79.72;101699.72;4966837;28;9535;-68
2023/05/07 08:13:17;;;;;;;;;27.50;26.75;;;;;16.55;78.98;101696.41;4986735;28;10126;-67
2023/05/07 08:15:44;;;;;;;;;24.50;24.50;;;;;16.54;80.13;101694.75;4981615;28;9769;-67
2023/05/07 08:18:11;;;;;;;;;29.25;29.25;;;;;16.58;80.13;101700.59;4976014;28;9573;-68
2023/05/07 08:20:39;;;;;;;;;28.00;24.50;;;;;16.60;79.68;101700.38;4975915;28;9903;-67
2023/05/07 08:23:08;;;;;;;;;25.67;24.33;;;;;16.57;79.50;101698.94;4957046;28;9472;-67
2023/05/07 08:25:37;;;;;;;;;19.00;18.67;;;;;16.59;79.83;101704.97;4979904;28;10528;-67
2023/05/07 08:28:04;;;;;;;;;21.50;21.50;;;;;16.63;79.58;101702.66;4975907;28;9267;-67
2023/05/07 08:30:32;;;;;;;;;22.00;22.00;;;;;16.79;79.73;101702.22;4967756;28;9563;-68
2023/05/07 08:33:00;;;;;;;;;25.25;24.50;;;;;16.94;79.16;101702.81;4954122;28;9411;-67
2023/05/07 08:35:27;;;;;;;;;28.50;27.50;;;;;17.09;78.55;101713.41;4983270;28;9636;-67
2023/05/07 08:37:54;;;;;;;;;20.67;20.67;;;;;17.15;77.84;101715.28;4972388;28;9741;-67
2023/05/07 08:40:26;;;;;;;;;29.75;27.75;;;;;17.15;78.14;101712.56;4982970;28;10048;-67
2023/05/07 08:42:56;;;;;;;;;25.50;24.50;;;;;17.24;78.26;101711.25;4966589;28;9674;-67
2023/05/07 08:45:22;;;;;;;;;17.33;17.00;;;;;17.33;78.04;101714.53;4985207;28;9520;-68
2023/05/07 08:47:55;;;;;;;;;26.75;25.75;;;;;17.33;77.90;101711.81;4973248;28;9272;-67
2023/05/07 08:50:24;;;;;;;;;23.33;22.33;;;;;17.37;77.59;101714.94;4979004;28;9549;-67
2023/05/07 08:52:51;;;;;;;;;34.50;27.50;;;;;17.37;76.56;101720.38;4974177;28;9399;-67
2023/05/07 08:55:20;;;;;;;;;29.00;27.67;;;;;17.41;76.57;101721.63;4983476;28;9382;-67
2023/05/07 08:57:47;;;;;;;;;23.33;23.00;;;;;17.52;76.46;101724.47;4983230;28;9321;-67
2023/05/07 09:00:16;;;;;;;;;21.67;21.67;;;;;17.71;75.54;101716.41;4982769;28;9343;-67
2023/05/07 09:02:45;;;;;;;;;20.67;20.67;;;;;17.89;74.48;101718.41;4979693;28;10044;-68
2023/05/07 09:05:12;;;;;;;;;16.67;16.00;;;;;18.02;73.42;101718.28;4980758;28;9164;-68
2023/05/07 09:07:39;;;;;;;;;18.00;17.00;;;;;18.13;72.78;101720.28;4978979;28;9049;-67
2023/05/07 09:10:07;;;;;;;;;23.67;23.00;;;;;18.29;72.52;101724.34;5000204;28;8968;-68
2023/05/07 09:12:36;;;;;;;;;20.00;20.00;;;;;18.34;72.25;101727.22;4962591;28;9333;-67
2023/05/07 09:15:06;;;;;;;;;17.33;17.33;;;;;18.37;71.98;101724.06;4962365;28;9082;-67
2023/05/07 09:17:33;;;;;;;;;20.00;18.67;;;;;18.49;72.29;101722.25;4967092;28;9612;-67
2023/05/07 09:20:04;;;;;;;;;20.00;20.00;;;;;18.51;71.41;101731.06;4964083;28;9036;-67
2023/05/07 09:22:36;;;;;;;;;28.00;25.67;;;;;18.45;70.72;101729.22;4965710;28;9109;-67
2023/05/07 09:25:07;;;;;;;;;26.67;24.00;;;;;18.38;71.05;101727.63;4973414;28;9251;-67
2023/05/07 09:27:37;;;;;;;;;32.33;28.00;;;;;18.40;71.12;101725.53;4968240;28;9275;-67
2023/05/07 09:30:08;;;;;;;;;21.33;21.00;;;;;18.54;71.20;101721.59;4964005;28;9367;-67
2023/05/07 09:32:37;;;;;;;;;15.25;15.00;;;;;18.67;70.87;101712.41;4978565;28;9375;-66
2023/05/07 09:35:15;;;;;;;;;20.00;17.33;;;;;18.76;70.92;101720.13;4978662;28;8864;-67
2023/05/07 09:37:42;;;;;;;;;27.33;25.33;;;;;18.70;70.34;101712.84;4987481;28;9166;-67
2023/05/07 09:40:21;;;;;;;;;21.67;18.00;;;;;18.76;70.48;101719.31;4978915;28;9241;-67
2023/05/07 09:42:49;;;;;;;;;20.33;20.33;;;;;18.81;70.65;101722.16;4970217;28;9249;-67
2023/05/07 09:45:29;;;;;;;;;25.00;22.67;;;;;18.84;69.92;101721.72;4985998;28;10114;-66
2023/05/07 09:47:58;;;;;;;;;18.75;17.75;;;;;18.82;69.35;101718.38;4976962;28;9173;-67
2023/05/07 09:50:28;;;;;;;;;19.00;18.50;;;;;18.85;69.04;101717.94;4971042;28;9563;-67
2023/05/07 09:52:56;;;;;;;;;15.75;15.00;;;;;18.93;68.98;101724.97;4988157;28;8984;-67
2023/05/07 09:55:25;;;;;;;;;14.75;12.75;;;;;18.97;68.51;101718.81;4977083;28;8847;-67
2023/05/07 09:57:53;;;;;;;;;16.00;15.25;;;;;19.08;68.28;101722.69;4975592;28;9551;-66
2023/05/07 10:00:21;;;;;;;;;12.00;11.50;;;;;19.10;67.31;101726.00;4995049;28;8874;-65
2023/05/07 10:02:52;;;;;;;;;19.00;18.67;;;;;19.12;67.04;101721.16;4973942;28;8850;-66
2023/05/07 10:05:30;;;;;;;;;20.67;20.00;;;;;19.09;66.50;101723.53;4989736;28;8973;-66
2023/05/07 10:08:00;;;;;;;;;14.50;14.25;;;;;19.01;66.37;101719.22;4974594;28;8961;-66
2023/05/07 10:10:32;;;;;;;;;13.25;13.25;;;;;19.02;66.24;101720.88;4984210;28;8877;-67
2023/05/07 10:13:00;;;;;;;;;18.25;16.25;;;;;18.98;66.42;101725.94;4983293;28;8907;-67
2023/05/07 10:15:32;;;;;;;;;16.75;16.00;;;;;19.00;66.44;101728.47;4976955;28;8839;-66
2023/05/07 10:18:01;;;;;;;;;16.75;14.50;;;;;19.00;67.11;101726.56;4975773;28;9579;-65
2023/05/07 10:20:28;;;;;;;;;13.50;13.00;;;;;19.07;67.20;101725.63;4990508;28;8851;-67
2023/05/07 10:22:58;;;;;;;;;16.75;15.00;;;;;19.07;67.36;101731.09;4952679;28;8854;-66
2023/05/07 10:25:32;;;;;;;;;18.50;17.00;;;;;19.04;67.64;101726.94;4980279;28;9574;-66
2023/05/07 10:28:08;;;;;;;;;19.33;18.00;;;;;18.97;67.50;101731.63;4994620;28;9008;-67
2023/05/07 10:31:00;;;;;;;;;24.00;21.00;;;;;18.91;67.36;101732.53;4956780;28;9083;-66
2023/05/07 10:33:36;;;;;;;;;12.00;12.00;;;;;18.88;67.13;101732.97;4970841;28;9752;-66
2023/05/07 10:36:04;;;;;;;;;17.67;17.67;;;;;18.86;67.02;101735.94;4969600;28;8913;-67
2023/05/07 10:38:31;;;;;;;;;17.33;17.33;;;;;18.84;67.36;101738.09;4954258;28;8943;-66
2023/05/07 10:40:59;;;;;;;;;15.50;15.50;;;;;18.92;67.38;101737.78;4973040;28;9248;-67
2023/05/07 10:43:40;;;;;;;;;19.67;19.33;;;;;19.00;67.80;101739.38;4977291;28;8815;-67
2023/05/07 10:46:13;;;;;;;;;23.00;23.00;;;;;19.15;67.96;101745.25;4977858;28;9001;-66
2023/05/07 10:49:02;;;;;;;;;16.50;15.00;;;;;19.20;67.96;101733.63;4968475;28;9109;-66
2023/05/07 10:51:38;;;;;;;;;19.25;18.50;;;;;19.15;66.58;101738.97;4985495;28;8940;-67
2023/05/07 10:54:19;;;;;;;;;15.50;14.75;;;;;19.12;66.33;101733.94;4970083;28;8836;-66
2023/05/07 10:56:54;;;;;;;;;18.25;17.50;;;;;19.09;66.14;101732.53;4980834;28;8861;-66
2023/05/07 10:59:33;;;;;;;;;16.25;14.25;;;;;19.17;66.62;101732.22;4955564;28;8856;-67
2023/05/07 11:02:09;;;;;;;;;14.00;11.25;;;;;19.37;65.73;101733.88;4939191;28;8874;-66
2023/05/07 11:05:19;;;;;;;;;12.50;9.50;;;;;19.51;65.33;101727.97;4985934;28;8853;-67
2023/05/07 11:07:58;;;;;;;;;12.75;12.00;;;;;19.58;64.64;101736.06;4945972;28;8876;-66
2023/05/07 11:10:54;;;;;;;;;10.75;10.75;;;;;19.79;64.98;101739.38;4963193;28;8886;-66
2023/05/07 11:13:52;;;;;;;;;6.50;5.75;;;;;19.99;63.64;101734.44;4974381;28;8854;-67
2023/05/07 11:16:46;;;;;;;;;10.25;9.25;;;;;20.08;62.79;101732.19;4954342;28;8868;-67
2023/05/07 11:19:51;;;;;;;;;22.50;22.50;;;;;20.05;64.04;101733.47;4962498;28;8868;-66
2023/05/07 11:22:31;;;;;;;;;29.00;27.67;;;;;19.82;64.79;101738.91;4986781;28;8851;-67
2023/05/07 11:25:09;;;;;;;;;27.67;25.00;;;;;19.64;66.32;101737.06;4984266;28;9073;-66
2023/05/07 11:27:37;;;;;;;;;20.25;19.25;;;;;19.53;66.79;101730.47;4980381;28;8947;-66